Time;durP1;ratioP1;P1;durP2;ratioP2;P2;SDS_P1;SDS_P2;PMS_P1;PMS_P2;Temp;Humidity;BMP_temperature;BMP_pressure;BME280_temperature;BME280_humidity;BME280_pressure;Samples;Min_cycle;Max_cycle;Signal;HPM_P1;HPM_P2
2022/06/20 00:01:05;;;;;;;;;39.00;34.00;;;;;-147.17;100.00;-15917.19;5011536;28;51115;-68
2022/06/20 00:03:38;;;;;;;;;37.00;33.25;;;;;-147.17;100.00;-15917.19;5009425;28;51249;-69
2022/06/20 00:06:03;;;;;;;;;38.00;34.50;;;;;-147.17;100.00;-15917.19;5003680;28;52365;-68
2022/06/20 00:08:28;;;;;;;;;44.75;38.25;;;;;-147.17;100.00;-15917.19;5004842;28;51221;-67
2022/06/20 00:10:54;;;;;;;;;39.00;34.75;;;;;-147.17;100.00;-15917.19;5006762;28;51200;-67
2022/06/20 00:13:27;;;;;;;;;36.75;33.50;;;;;-147.17;100.00;-15917.19;5009298;28;51092;-68
2022/06/20 00:15:56;;;;;;;;;39.00;35.00;;;;;-147.17;100.00;-15917.19;5010929;28;52021;-68
2022/06/20 00:18:21;;;;;;;;;38.25;33.00;;;;;-147.17;100.00;-15917.19;5013372;28;51451;-68
2022/06/20 00:20:46;;;;;;;;;38.75;33.00;;;;;-147.17;100.00;-15917.19;5018510;28;51184;-68
2022/06/20 00:23:12;;;;;;;;;40.75;35.50;;;;;-147.17;100.00;-15917.19;5010434;28;51042;-68
2022/06/20 00:25:38;;;;;;;;;44.75;38.00;;;;;-147.17;100.00;-15917.19;5009945;28;52070;-68
2022/06/20 00:28:05;;;;;;;;;42.50;36.25;;;;;-147.17;100.00;-15917.19;4999251;28;51224;-68
2022/06/20 00:30:31;;;;;;;;;42.25;35.25;;;;;-147.17;100.00;-15917.19;5001013;28;51181;-67
2022/06/20 00:32:56;;;;;;;;;40.25;35.00;;;;;-147.17;100.00;-15917.19;5012426;28;51209;-68
2022/06/20 00:35:22;;;;;;;;;39.75;35.00;;;;;-147.17;100.00;-15917.19;5002631;28;52080;-67
2022/06/20 00:37:48;;;;;;;;;37.50;33.00;;;;;-147.17;100.00;-15917.19;5002736;28;51321;-68
2022/06/20 00:40:20;;;;;;;;;34.75;32.50;;;;;-147.17;100.00;-15917.19;5010677;28;51073;-68
2022/06/20 00:42:46;;;;;;;;;40.75;34.00;;;;;-147.17;100.00;-15917.19;5002509;28;51132;-68
2022/06/20 00:45:13;;;;;;;;;38.25;34.25;;;;;-147.17;100.00;-15917.19;5010220;28;51898;-68
2022/06/20 00:47:39;;;;;;;;;36.50;33.00;;;;;-147.17;100.00;-15917.19;5008643;28;51219;-68
2022/06/20 00:50:14;;;;;;;;;39.25;34.50;;;;;-147.17;100.00;-15917.19;5009981;28;51211;-67
2022/06/20 00:52:44;;;;;;;;;41.75;36.25;;;;;-147.17;100.00;-15917.19;5008813;28;51156;-69
2022/06/20 00:55:24;;;;;;;;;36.25;33.25;;;;;-147.17;100.00;-15917.19;4996309;28;51855;-68
2022/06/20 00:57:56;;;;;;;;;40.75;35.50;;;;;-147.17;100.00;-15917.19;5002577;28;51194;-68
2022/06/20 01:00:26;;;;;;;;;36.50;33.00;;;;;-147.17;100.00;-15917.19;5009894;28;52474;-68
2022/06/20 01:03:01;;;;;;;;;42.25;35.50;;;;;-147.17;100.00;-15917.19;5007627;28;51330;-68
2022/06/20 01:05:35;;;;;;;;;36.25;33.00;;;;;-147.17;100.00;-15917.19;5004529;28;51156;-68
2022/06/20 01:08:11;;;;;;;;;40.00;33.75;;;;;-147.17;100.00;-15917.19;5007989;28;51375;-68
2022/06/20 01:10:52;;;;;;;;;39.75;35.00;;;;;-147.17;100.00;-15917.19;5008103;28;51180;-68
2022/06/20 01:13:21;;;;;;;;;38.25;34.75;;;;;-147.17;100.00;-15917.19;5003338;28;52463;-68
2022/06/20 01:15:50;;;;;;;;;33.50;32.00;;;;;-147.17;100.00;-15917.19;5001761;28;52108;-69
2022/06/20 01:18:24;;;;;;;;;33.75;31.25;;;;;-147.17;100.00;-15917.19;5002181;28;51290;-68
2022/06/20 01:20:51;;;;;;;;;37.75;33.25;;;;;-147.17;100.00;-15917.19;5011997;28;51612;-68
2022/06/20 01:23:20;;;;;;;;;35.00;32.25;;;;;-147.17;100.00;-15917.19;5000366;28;51038;-67
2022/06/20 01:26:04;;;;;;;;;37.00;33.25;;;;;-147.17;100.00;-15917.19;5005569;28;51905;-68
2022/06/20 01:28:34;;;;;;;;;30.75;29.50;;;;;-147.17;100.00;-15917.19;5006874;28;51303;-68
2022/06/20 01:31:00;;;;;;;;;34.25;32.00;;;;;-147.17;100.00;-15917.19;5003950;28;51076;-68
2022/06/20 01:33:26;;;;;;;;;35.25;32.25;;;;;-147.17;100.00;-15917.19;5013069;28;53264;-68
2022/06/20 01:38:39;;;;;;;;;29.75;29.25;;;;;-147.17;100.00;-15917.19;5002501;28;51203;-67
2022/06/20 01:43:53;;;;;;;;;34.00;31.75;;;;;-147.17;100.00;-15917.19;5008871;28;51059;-67
2022/06/20 01:46:21;;;;;;;;;34.00;31.50;;;;;-147.17;100.00;-15917.19;5011679;28;51128;-68
2022/06/20 01:48:54;;;;;;;;;34.00;32.00;;;;;-147.17;100.00;-15917.19;5005696;28;51188;-68
2022/06/20 01:51:27;;;;;;;;;31.25;28.25;;;;;-147.17;100.00;-15917.19;5007521;28;51254;-67
2022/06/20 01:53:55;;;;;;;;;37.25;33.25;;;;;-147.17;100.00;-15917.19;5013213;28;50969;-68
2022/06/20 01:56:23;;;;;;;;;36.00;33.00;;;;;-147.17;100.00;-15917.19;5011675;28;54104;-67
2022/06/20 01:58:57;;;;;;;;;33.00;31.25;;;;;-147.17;100.00;-15917.19;5003498;28;51217;-67
2022/06/20 02:01:25;;;;;;;;;28.75;26.50;;;;;-147.17;100.00;-15917.19;5012792;28;51316;-67
2022/06/20 02:03:50;;;;;;;;;35.50;32.00;;;;;-147.17;100.00;-15917.19;5005873;28;51182;-67
2022/06/20 02:06:17;;;;;;;;;33.75;31.75;;;;;-147.17;100.00;-15917.19;5008085;28;51748;-68
2022/06/20 02:08:48;;;;;;;;;35.00;31.25;;;;;-147.17;100.00;-15917.19;5011854;28;51120;-67
2022/06/20 02:11:29;;;;;;;;;33.00;31.00;;;;;-147.17;100.00;-15917.19;5002329;28;51198;-67
2022/06/20 02:14:04;;;;;;;;;32.00;30.00;;;;;-147.17;100.00;-15917.19;5005202;28;51294;-67
2022/06/20 02:16:34;;;;;;;;;33.50;32.00;;;;;-147.17;100.00;-15917.19;5019736;28;52024;-68
2022/06/20 02:19:03;;;;;;;;;31.25;29.50;;;;;-147.17;100.00;-15917.19;5007671;28;51241;-68
2022/06/20 02:21:31;;;;;;;;;33.50;31.25;;;;;-147.17;100.00;-15917.19;5017379;28;50938;-68
2022/06/20 02:24:10;;;;;;;;;37.25;33.00;;;;;-147.17;100.00;-15917.19;5013650;28;51124;-68
2022/06/20 02:26:38;;;;;;;;;33.00;31.75;;;;;-147.17;100.00;-15917.19;4999083;28;52818;-69
2022/06/20 02:29:22;;;;;;;;;30.00;29.75;;;;;-147.17;100.00;-15917.19;5006842;28;51383;-68
2022/06/20 02:32:02;;;;;;;;;37.00;32.00;;;;;-147.17;100.00;-15917.19;5010518;28;51348;-67
2022/06/20 02:34:29;;;;;;;;;31.00;30.00;;;;;-147.17;100.00;-15917.19;5003817;28;51449;-68
2022/06/20 02:36:58;;;;;;;;;31.50;30.25;;;;;-147.17;100.00;-15917.19;5007278;28;51700;-68
2022/06/20 02:39:25;;;;;;;;;38.25;32.50;;;;;-147.17;100.00;-15917.19;5011690;28;51527;-68
2022/06/20 02:41:57;;;;;;;;;27.75;27.75;;;;;-147.17;100.00;-15917.19;5008689;28;51223;-69
2022/06/20 02:44:24;;;;;;;;;33.25;30.50;;;;;-147.17;100.00;-15917.19;5013875;28;51006;-68
2022/06/20 02:46:52;;;;;;;;;30.75;30.00;;;;;-147.17;100.00;-15917.19;5009564;28;51735;-68
2022/06/20 02:49:21;;;;;;;;;33.25;31.00;;;;;-147.17;100.00;-15917.19;5012017;28;51069;-69
2022/06/20 02:51:52;;;;;;;;;33.00;32.00;;;;;-147.17;100.00;-15917.19;5008706;28;51214;-68
2022/06/20 02:54:23;;;;;;;;;34.00;32.00;;;;;-147.17;100.00;-15917.19;5010588;28;51238;-68
2022/06/20 02:56:54;;;;;;;;;34.75;31.75;;;;;-147.17;100.00;-15917.19;5012781;28;50994;-68
2022/06/20 02:59:36;;;;;;;;;31.00;28.75;;;;;-147.17;100.00;-15917.19;5004283;28;51273;-68
2022/06/20 03:02:08;;;;;;;;;33.50;32.00;;;;;-147.17;100.00;-15917.19;5007416;28;51322;-68
2022/06/20 03:04:36;;;;;;;;;29.75;29.00;;;;;-147.17;100.00;-15917.19;5009678;28;51097;-69
2022/06/20 03:07:07;;;;;;;;;30.00;29.25;;;;;-147.17;100.00;-15917.19;5007901;28;52076;-69
2022/06/20 03:09:37;;;;;;;;;31.25;29.75;;;;;-147.17;100.00;-15917.19;5007528;28;51199;-68
2022/06/20 03:12:05;;;;;;;;;32.25;27.75;;;;;-147.17;100.00;-15917.19;5010962;28;51177;-68
2022/06/20 03:14:36;;;;;;;;;35.00;31.50;;;;;-147.17;100.00;-15917.19;5011578;28;51268;-68
2022/06/20 03:17:04;;;;;;;;;33.25;29.75;;;;;-147.17;100.00;-15917.19;5011364;28;51702;-68
2022/06/20 03:19:33;;;;;;;;;31.75;30.50;;;;;-147.17;100.00;-15917.19;5011980;28;51242;-69
2022/06/20 03:22:08;;;;;;;;;30.00;29.00;;;;;-147.17;100.00;-15917.19;5002014;28;50868;-68
2022/06/20 03:24:34;;;;;;;;;29.75;29.50;;;;;-147.17;100.00;-15917.19;4999649;28;51338;-67
2022/06/20 03:27:02;;;;;;;;;27.00;27.00;;;;;-147.17;100.00;-15917.19;5007033;28;51892;-68
2022/06/20 03:29:27;;;;;;;;;30.00;29.00;;;;;-147.17;100.00;-15917.19;5004937;28;51190;-69
2022/06/20 03:31:54;;;;;;;;;33.75;28.00;;;;;-147.17;100.00;-15917.19;5012102;28;51100;-68
2022/06/20 03:34:21;;;;;;;;;29.50;28.25;;;;;-147.17;100.00;-15917.19;5007178;28;51131;-69
2022/06/20 03:36:49;;;;;;;;;32.25;30.50;;;;;-147.17;100.00;-15917.19;5007375;28;53665;-69
2022/06/20 03:39:17;;;;;;;;;30.75;28.50;;;;;-147.17;100.00;-15917.19;5007737;28;51138;-68
2022/06/20 03:41:43;;;;;;;;;32.50;30.00;;;;;-147.17;100.00;-15917.19;5011210;28;51195;-68
2022/06/20 03:44:23;;;;;;;;;30.00;28.50;;;;;-147.17;100.00;-15917.19;5006134;28;51171;-68
2022/06/20 03:47:02;;;;;;;;;30.75;29.00;;;;;-147.17;100.00;-15917.19;5008011;28;51856;-70
2022/06/20 03:49:45;;;;;;;;;33.50;31.25;;;;;-147.17;100.00;-15917.19;5009312;28;50895;-69
2022/06/20 03:52:21;;;;;;;;;29.50;28.25;;;;;-147.17;100.00;-15917.19;5005866;28;51136;-68
2022/06/20 03:55:02;;;;;;;;;31.00;29.50;;;;;-147.17;100.00;-15917.19;5011896;28;51084;-69
2022/06/20 03:58:20;;;;;;;;;30.75;29.25;;;;;-147.17;100.00;-15917.19;5007841;28;52629;-68
2022/06/20 04:00:54;;;;;;;;;32.50;30.75;;;;;-147.17;100.00;-15917.19;4973218;28;51711;-68
2022/06/20 04:03:24;;;;;;;;;27.75;27.00;;;;;-147.17;100.00;-15917.19;5004005;28;51025;-69
2022/06/20 04:06:03;;;;;;;;;27.75;27.75;;;;;-147.17;100.00;-15917.19;5001530;28;51055;-69
2022/06/20 04:11:38;;;;;;;;;35.00;31.25;;;;;-147.17;100.00;-15917.19;5009617;28;51106;-68
2022/06/20 04:14:18;;;;;;;;;32.25;30.00;;;;;-147.17;100.00;-15917.19;5010543;28;51235;-68
2022/06/20 04:16:47;;;;;;;;;31.25;30.25;;;;;-147.17;100.00;-15917.19;5018568;28;51117;-68
2022/06/20 04:19:34;;;;;;;;;32.25;30.75;;;;;-147.17;100.00;-15917.19;5013514;28;51320;-68
2022/06/20 04:22:08;;;;;;;;;30.50;27.75;;;;;-147.17;100.00;-15917.19;4994039;28;51010;-69
2022/06/20 04:24:40;;;;;;;;;35.50;31.75;;;;;-147.17;100.00;-15917.19;5012242;28;51103;-67
2022/06/20 04:27:22;;;;;;;;;37.00;33.00;;;;;-147.17;100.00;-15917.19;5006164;28;51140;-68
2022/06/20 04:29:53;;;;;;;;;32.00;30.25;;;;;-147.17;100.00;-15917.19;5007502;28;51888;-69
2022/06/20 04:32:27;;;;;;;;;35.75;32.00;;;;;-147.17;100.00;-15917.19;5006288;28;51197;-68
2022/06/20 04:35:00;;;;;;;;;35.25;32.50;;;;;-147.17;100.00;-15917.19;5005974;28;51164;-68
2022/06/20 04:37:51;;;;;;;;;35.25;32.00;;;;;-147.17;100.00;-15917.19;5001427;28;51298;-68
2022/06/20 04:40:32;;;;;;;;;36.00;32.00;;;;;-147.17;100.00;-15917.19;5007942;28;54017;-67
2022/06/20 04:43:11;;;;;;;;;36.75;33.00;;;;;-147.17;100.00;-15917.19;4997147;28;51172;-69
2022/06/20 04:45:53;;;;;;;;;32.75;31.25;;;;;-147.17;100.00;-15917.19;5008324;28;51119;-68
2022/06/20 04:48:22;;;;;;;;;38.25;33.50;;;;;-147.17;100.00;-15917.19;5006255;28;51300;-68
2022/06/20 04:50:50;;;;;;;;;34.75;32.00;;;;;-147.17;100.00;-15917.19;5000065;28;54033;-69
2022/06/20 04:53:23;;;;;;;;;30.75;29.25;;;;;-147.17;100.00;-15917.19;5009072;28;51022;-67
2022/06/20 04:55:51;;;;;;;;;35.25;32.50;;;;;-147.17;100.00;-15917.19;5002574;28;51176;-68
2022/06/20 04:58:21;;;;;;;;;31.25;30.00;;;;;-147.17;100.00;-15917.19;4999959;28;51374;-68
2022/06/20 05:00:49;;;;;;;;;33.75;32.00;;;;;-147.17;100.00;-15917.19;5005904;28;51836;-68
2022/06/20 05:03:20;;;;;;;;;31.50;29.50;;;;;-147.17;100.00;-15917.19;5001434;28;52808;-69
2022/06/20 05:05:50;;;;;;;;;30.00;27.75;;;;;-147.17;100.00;-15917.19;5007249;28;51164;-69
2022/06/20 05:08:24;;;;;;;;;30.25;28.75;;;;;-147.17;100.00;-15917.19;5009789;28;51198;-68
2022/06/20 05:11:13;;;;;;;;;30.25;28.00;;;;;-147.17;100.00;-15917.19;5003181;28;52041;-68
2022/06/20 05:13:46;;;;;;;;;29.50;28.75;;;;;-147.17;100.00;-15917.19;4997762;28;51377;-68
2022/06/20 05:16:22;;;;;;;;;29.75;29.25;;;;;-147.17;100.00;-15917.19;5016002;28;51176;-67
2022/06/20 05:18:53;;;;;;;;;31.00;28.50;;;;;-147.17;100.00;-15917.19;5012431;28;51104;-67
2022/06/20 05:21:24;;;;;;;;;26.25;25.75;;;;;-147.17;100.00;-15917.19;5017315;28;51165;-69
2022/06/20 05:23:54;;;;;;;;;26.00;25.75;;;;;-147.17;100.00;-15917.19;5012862;28;51064;-68
2022/06/20 05:26:22;;;;;;;;;29.25;27.00;;;;;-147.17;100.00;-15917.19;5011681;28;51124;-69
2022/06/20 05:28:51;;;;;;;;;25.50;24.50;;;;;-147.17;100.00;-15917.19;5005624;28;51243;-69
2022/06/20 05:31:28;;;;;;;;;30.50;29.50;;;;;-147.17;100.00;-15917.19;5014114;28;51810;-67
2022/06/20 05:34:20;;;;;;;;;28.25;27.25;;;;;-147.17;100.00;-15917.19;5012087;28;51036;-68
2022/06/20 05:37:13;;;;;;;;;25.75;25.50;;;;;-147.17;100.00;-15917.19;5000356;28;51063;-67
2022/06/20 05:39:51;;;;;;;;;28.00;26.50;;;;;-147.17;100.00;-15917.19;5013022;28;51325;-68
2022/06/20 05:42:18;;;;;;;;;27.50;26.25;;;;;-147.17;100.00;-15917.19;5018170;28;51129;-68
2022/06/20 05:44:44;;;;;;;;;26.00;24.75;;;;;-147.17;100.00;-15917.19;5022140;28;50986;-67
2022/06/20 05:47:12;;;;;;;;;28.00;27.25;;;;;-147.17;100.00;-15917.19;5013118;28;51196;-69
2022/06/20 05:49:46;;;;;;;;;27.75;26.75;;;;;-147.17;100.00;-15917.19;5024850;28;51193;-69
2022/06/20 05:52:18;;;;;;;;;26.25;24.75;;;;;-147.17;100.00;-15917.19;5007949;28;51145;-68
2022/06/20 05:55:00;;;;;;;;;26.75;26.00;;;;;-147.17;100.00;-15917.19;4999347;28;50925;-68
2022/06/20 05:57:30;;;;;;;;;26.75;25.25;;;;;-147.17;100.00;-15917.19;5010195;28;51095;-69
2022/06/20 06:00:06;;;;;;;;;22.25;22.25;;;;;-147.17;100.00;-15917.19;5011113;28;51269;-68
2022/06/20 06:02:40;;;;;;;;;21.75;20.00;;;;;-147.17;100.00;-15917.19;5004215;28;51166;-69
2022/06/20 06:05:28;;;;;;;;;26.75;24.00;;;;;-147.17;100.00;-15917.19;5010382;28;51322;-68
2022/06/20 06:08:19;;;;;;;;;25.50;24.00;;;;;-147.17;100.00;-15917.19;5008516;28;51152;-68
2022/06/20 06:10:56;;;;;;;;;25.25;23.75;;;;;-147.17;100.00;-15917.19;5008413;28;51129;-68
2022/06/20 06:13:26;;;;;;;;;22.75;21.75;;;;;-147.17;100.00;-15917.19;5009698;28;53752;-68
2022/06/20 06:19:30;;;;;;;;;21.75;20.00;;;;;-147.17;100.00;-15917.19;5010033;28;51144;-67
2022/06/20 06:22:00;;;;;;;;;21.00;21.00;;;;;-147.17;100.00;-15917.19;5007914;28;51255;-68
2022/06/20 06:24:28;;;;;;;;;20.00;19.25;;;;;-147.17;100.00;-15917.19;5011407;28;51404;-68
2022/06/20 06:26:58;;;;;;;;;14.75;13.50;;;;;-147.17;100.00;-15917.19;5010898;28;51163;-67
2022/06/20 06:29:38;;;;;;;;;22.00;19.75;;;;;-147.17;100.00;-15917.19;5004030;28;51503;-68
2022/06/20 06:32:27;;;;;;;;;22.75;21.25;;;;;-147.17;100.00;-15917.19;5012918;28;50982;-69
2022/06/20 06:35:18;;;;;;;;;19.00;18.00;;;;;-147.17;100.00;-15917.19;5010669;28;52295;-67
2022/06/20 06:37:55;;;;;;;;;20.75;20.00;;;;;-147.17;100.00;-15917.19;4989934;28;51228;-68
2022/06/20 06:40:39;;;;;;;;;23.75;21.50;;;;;-147.17;100.00;-15917.19;5004889;28;51262;-68
2022/06/20 06:43:37;;;;;;;;;20.50;19.75;;;;;-147.17;100.00;-15917.19;5005521;28;51065;-68
2022/06/20 06:46:05;;;;;;;;;18.00;17.00;;;;;-147.17;100.00;-15917.19;5004996;28;51889;-67
2022/06/20 06:48:52;;;;;;;;;17.00;16.50;;;;;-147.17;100.00;-15917.19;5006583;28;51158;-67
2022/06/20 06:51:33;;;;;;;;;17.25;16.75;;;;;-147.17;100.00;-15917.19;5002823;28;51261;-66
2022/06/20 06:54:18;;;;;;;;;18.50;18.25;;;;;-147.17;100.00;-15917.19;5009009;28;51433;-67
2022/06/20 06:57:03;;;;;;;;;17.00;16.75;;;;;-147.17;100.00;-15917.19;5007446;28;51851;-67
2022/06/20 06:59:57;;;;;;;;;19.00;17.25;;;;;-147.17;100.00;-15917.19;5008421;28;51286;-68
2022/06/20 07:02:27;;;;;;;;;18.00;18.00;;;;;-147.17;100.00;-15917.19;4995614;28;51247;-67
2022/06/20 07:05:00;;;;;;;;;18.50;18.00;;;;;-147.17;100.00;-15917.19;5005955;28;51127;-68
2022/06/20 07:07:33;;;;;;;;;17.50;16.75;;;;;-147.17;100.00;-15917.19;5002999;28;51951;-68
2022/06/20 07:09:59;;;;;;;;;17.75;16.00;;;;;-147.17;100.00;-15917.19;5007493;28;51804;-67
2022/06/20 07:12:34;;;;;;;;;19.25;18.00;;;;;-147.17;100.00;-15917.19;5011167;28;51374;-67
2022/06/20 07:15:17;;;;;;;;;21.50;19.50;;;;;-147.17;100.00;-15917.19;5010104;28;51210;-67
2022/06/20 07:17:58;;;;;;;;;20.00;18.75;;;;;-147.17;100.00;-15917.19;5009024;28;54940;-67
2022/06/20 07:20:39;;;;;;;;;18.50;17.00;;;;;-147.17;100.00;-15917.19;5011077;28;51103;-68
2022/06/20 07:23:12;;;;;;;;;17.00;16.75;;;;;-147.17;100.00;-15917.19;5009311;28;51193;-68
2022/06/20 07:25:42;;;;;;;;;18.00;18.00;;;;;-147.17;100.00;-15917.19;5008847;28;51116;-68
2022/06/20 07:28:29;;;;;;;;;21.25;20.50;;;;;-147.17;100.00;-15917.19;5003119;28;53447;-69
2022/06/20 07:31:04;;;;;;;;;17.00;17.00;;;;;-147.17;100.00;-15917.19;5007560;28;51088;-68
2022/06/20 07:33:39;;;;;;;;;24.25;21.50;;;;;-147.17;100.00;-15917.19;5005802;28;50940;-69
2022/06/20 07:36:09;;;;;;;;;21.25;19.25;;;;;-147.17;100.00;-15917.19;5009096;28;51273;-69
2022/06/20 07:38:45;;;;;;;;;21.50;20.00;;;;;-147.17;100.00;-15917.19;5009933;28;52039;-68
2022/06/20 07:41:19;;;;;;;;;21.00;21.00;;;;;-147.17;100.00;-15917.19;5004105;28;51432;-67
2022/06/20 07:44:31;;;;;;;;;20.75;20.00;;;;;-147.17;100.00;-15917.19;5009921;28;51417;-68
2022/06/20 07:47:01;;;;;;;;;19.50;18.25;;;;;-147.17;100.00;-15917.19;4999079;28;51324;-68
2022/06/20 07:49:34;;;;;;;;;21.00;21.00;;;;;-147.17;100.00;-15917.19;5002052;28;51213;-68
2022/06/20 07:52:07;;;;;;;;;21.50;20.75;;;;;-147.17;100.00;-15917.19;5010090;28;51403;-68
2022/06/20 07:54:38;;;;;;;;;23.00;21.75;;;;;-147.17;100.00;-15917.19;5007445;28;51227;-68
2022/06/20 07:57:14;;;;;;;;;20.50;19.00;;;;;-147.17;100.00;-15917.19;5010650;28;51111;-68
2022/06/20 07:59:46;;;;;;;;;20.25;20.00;;;;;-147.17;100.00;-15917.19;4994236;28;51015;-68
2022/06/20 08:02:22;;;;;;;;;19.75;19.00;;;;;-147.17;100.00;-15917.19;5006569;28;51155;-68
2022/06/20 08:04:55;;;;;;;;;19.50;18.75;;;;;-147.17;100.00;-15917.19;5007046;28;51232;-67
2022/06/20 08:07:29;;;;;;;;;20.50;20.25;;;;;-147.17;100.00;-15917.19;5007327;28;51046;-68
2022/06/20 08:10:21;;;;;;;;;23.00;20.75;;;;;-147.17;100.00;-15917.19;5008623;28;51141;-67
2022/06/20 08:13:17;;;;;;;;;22.75;21.50;;;;;-147.17;100.00;-15917.19;5004423;28;51356;-67
2022/06/20 08:15:50;;;;;;;;;21.75;19.75;;;;;-147.17;100.00;-15917.19;5012430;28;51150;-67
2022/06/20 08:18:15;;;;;;;;;23.00;22.75;;;;;-147.17;100.00;-15917.19;5006490;28;51001;-67
2022/06/20 08:20:47;;;;;;;;;20.25;20.00;;;;;-147.17;100.00;-15917.19;5000633;28;52054;-67
2022/06/20 08:23:23;;;;;;;;;22.50;21.00;;;;;-147.17;100.00;-15917.19;5006327;28;51227;-67
2022/06/20 08:25:52;;;;;;;;;22.25;21.50;;;;;-147.17;100.00;-15917.19;5010420;28;51095;-68
2022/06/20 08:28:21;;;;;;;;;28.00;25.25;;;;;-147.17;100.00;-15917.19;5005692;28;51172;-68
2022/06/20 08:30:59;;;;;;;;;24.75;24.00;;;;;-147.17;100.00;-15917.19;5000024;28;51860;-68
2022/06/20 08:33:39;;;;;;;;;22.25;21.00;;;;;-147.17;100.00;-15917.19;4997195;28;51055;-66
2022/06/20 08:36:23;;;;;;;;;21.50;21.00;;;;;-147.17;100.00;-15917.19;5000120;28;51413;-67
2022/06/20 08:39:22;;;;;;;;;22.00;21.00;;;;;-147.17;100.00;-15917.19;5002148;28;51300;-67
2022/06/20 08:42:27;;;;;;;;;25.75;23.25;;;;;-147.17;100.00;-15917.19;5007292;28;52111;-66
2022/06/20 08:45:35;;;;;;;;;24.75;23.25;;;;;-147.17;100.00;-15917.19;5006457;28;51142;-69
2022/06/20 08:48:31;;;;;;;;;23.75;22.75;;;;;-147.17;100.00;-15917.19;4976668;28;51814;-68
2022/06/20 08:51:07;;;;;;;;;25.75;24.25;;;;;-147.17;100.00;-15917.19;5004473;28;51318;-70
2022/06/20 08:54:09;;;;;;;;;20.00;20.00;;;;;-147.17;100.00;-15917.19;4997626;28;51320;-69
2022/06/20 08:56:58;;;;;;;;;27.00;26.00;;;;;-147.17;100.00;-15917.19;4992217;28;51201;-67
2022/06/20 08:59:39;;;;;;;;;22.00;20.00;;;;;-147.17;100.00;-15917.19;5007594;28;51188;-69
2022/06/20 09:02:25;;;;;;;;;24.00;24.00;;;;;-147.17;100.00;-15917.19;5010233;28;50986;-68
2022/06/20 09:05:19;;;;;;;;;30.75;26.75;;;;;-147.17;100.00;-15917.19;5008777;28;51189;-69
2022/06/20 09:07:44;;;;;;;;;24.75;22.75;;;;;-147.17;100.00;-15917.19;5010903;28;51039;-71
2022/06/20 09:10:39;;;;;;;;;24.50;22.75;;;;;-147.17;100.00;-15917.19;5015175;28;50869;-69
2022/06/20 09:13:07;;;;;;;;;26.75;26.50;;;;;-147.17;100.00;-15917.19;4998844;28;51324;-69
2022/06/20 09:15:55;;;;;;;;;21.75;20.25;;;;;-147.17;100.00;-15917.19;5008748;28;52856;-69
2022/06/20 09:18:35;;;;;;;;;21.75;21.00;;;;;-147.17;100.00;-15917.19;5014496;28;51212;-68
2022/06/20 09:21:26;;;;;;;;;22.50;22.25;;;;;-147.17;100.00;-15917.19;5011108;28;51088;-68
2022/06/20 09:24:00;;;;;;;;;23.00;23.00;;;;;-147.17;100.00;-15917.19;5007938;28;51220;-68
2022/06/20 09:26:53;;;;;;;;;23.75;23.00;;;;;-147.17;100.00;-15917.19;5008720;28;52980;-67
2022/06/20 09:29:57;;;;;;;;;19.25;17.75;;;;;-147.17;100.00;-15917.19;5008017;28;51311;-67
2022/06/20 09:32:53;;;;;;;;;17.25;15.00;;;;;-147.17;100.00;-15917.19;5006518;28;51544;-69
2022/06/20 09:35:44;;;;;;;;;24.50;23.25;;;;;-147.17;100.00;-15917.19;4998875;28;51161;-68
2022/06/20 09:38:30;;;;;;;;;21.50;21.25;;;;;-147.17;100.00;-15917.19;5013536;28;51316;-66
2022/06/20 09:41:08;;;;;;;;;23.00;21.25;;;;;-147.17;100.00;-15917.19;5013661;28;51057;-67
2022/06/20 09:44:09;;;;;;;;;22.75;22.00;;;;;-147.17;100.00;-15917.19;4997666;28;51105;-67
2022/06/20 09:47:01;;;;;;;;;21.75;20.75;;;;;-147.17;100.00;-15917.19;5004485;28;51057;-67
2022/06/20 09:49:35;;;;;;;;;27.50;26.50;;;;;-147.17;100.00;-15917.19;5015972;28;51742;-67
2022/06/20 09:52:22;;;;;;;;;25.50;24.75;;;;;-147.17;100.00;-15917.19;5004364;28;51201;-68
2022/06/20 09:55:14;;;;;;;;;23.75;23.75;;;;;-147.17;100.00;-15917.19;5009508;28;51136;-68
2022/06/20 09:57:55;;;;;;;;;26.25;24.25;;;;;-147.17;100.00;-15917.19;5016146;28;51145;-68
2022/06/20 10:00:59;;;;;;;;;25.50;23.25;;;;;-147.17;100.00;-15917.19;5013606;28;52135;-68
2022/06/20 10:03:43;;;;;;;;;22.25;22.25;;;;;-147.17;100.00;-15917.19;5007280;28;50986;-68
2022/06/20 10:06:17;;;;;;;;;25.00;23.75;;;;;-147.17;100.00;-15917.19;5005163;28;51152;-70
2022/06/20 10:08:56;;;;;;;;;24.50;23.00;;;;;-147.17;100.00;-15917.19;5001386;28;51059;-67
2022/06/20 10:11:34;;;;;;;;;22.50;21.75;;;;;-147.17;100.00;-15917.19;5007880;28;51835;-68
2022/06/20 10:14:32;;;;;;;;;28.50;23.25;;;;;-147.17;100.00;-15917.19;5009875;28;51105;-67
2022/06/20 10:17:25;;;;;;;;;27.00;26.25;;;;;-147.17;100.00;-15917.19;5015594;28;51349;-67
2022/06/20 10:20:16;;;;;;;;;26.25;24.25;;;;;-147.17;100.00;-15917.19;5007155;28;51094;-68
2022/06/20 10:22:52;;;;;;;;;24.25;23.75;;;;;-147.17;100.00;-15917.19;4998461;28;51099;-69
2022/06/20 10:25:26;;;;;;;;;23.25;23.25;;;;;-147.17;100.00;-15917.19;5000138;28;50897;-67
2022/06/20 10:28:10;;;;;;;;;25.75;24.75;;;;;-147.17;100.00;-15917.19;5001551;28;51029;-68
2022/06/20 10:30:45;;;;;;;;;24.50;23.00;;;;;-147.17;100.00;-15917.19;5013222;28;51158;-68
2022/06/20 10:33:31;;;;;;;;;21.50;20.75;;;;;-147.17;100.00;-15917.19;5002029;28;51923;-69
2022/06/20 10:36:16;;;;;;;;;23.75;22.50;;;;;-147.17;100.00;-15917.19;5007236;28;51027;-67
2022/06/20 10:39:08;;;;;;;;;26.25;25.25;;;;;-147.17;100.00;-15917.19;4996468;28;51279;-69
2022/06/20 10:41:56;;;;;;;;;28.25;27.25;;;;;-147.17;100.00;-15917.19;5003847;28;51115;-67
2022/06/20 10:44:37;;;;;;;;;22.75;22.50;;;;;-147.17;100.00;-15917.19;5010196;28;52198;-68
2022/06/20 10:47:11;;;;;;;;;21.25;20.75;;;;;-147.17;100.00;-15917.19;4993677;28;51243;-68
2022/06/20 10:50:21;;;;;;;;;24.00;23.50;;;;;-147.17;100.00;-15917.19;4994404;28;51266;-67
2022/06/20 10:53:21;;;;;;;;;23.75;22.75;;;;;-147.17;100.00;-15917.19;4992028;28;50991;-67
2022/06/20 10:56:23;;;;;;;;;27.25;26.75;;;;;-147.17;100.00;-15917.19;5008116;28;52584;-68
2022/06/20 10:58:49;;;;;;;;;24.00;23.50;;;;;-147.17;100.00;-15917.19;5010313;28;51105;-68
2022/06/20 11:01:26;;;;;;;;;28.50;28.50;;;;;-147.17;100.00;-15917.19;5003455;28;51741;-69
2022/06/20 11:04:07;;;;;;;;;26.50;25.75;;;;;-147.17;100.00;-15917.19;5011195;28;51549;-67
2022/06/20 11:06:47;;;;;;;;;27.25;26.50;;;;;-147.17;100.00;-15917.19;5010931;28;51167;-67
2022/06/20 11:09:36;;;;;;;;;27.50;26.75;;;;;-147.17;100.00;-15917.19;5009887;28;51148;-67
2022/06/20 11:12:27;;;;;;;;;28.50;27.00;;;;;-147.17;100.00;-15917.19;4994004;28;50989;-68
2022/06/20 11:14:58;;;;;;;;;26.00;25.50;;;;;-147.17;100.00;-15917.19;5009963;28;51139;-68
2022/06/20 11:17:29;;;;;;;;;26.50;25.25;;;;;-147.17;100.00;-15917.19;5000717;28;52136;-68
2022/06/20 11:20:08;;;;;;;;;22.75;21.75;;;;;-147.17;100.00;-15917.19;4999677;28;51108;-67
2022/06/20 11:22:42;;;;;;;;;23.25;22.00;;;;;-147.17;100.00;-15917.19;5008379;28;51108;-68
2022/06/20 11:25:29;;;;;;;;;22.75;21.50;;;;;-147.17;100.00;-15917.19;5011777;28;51102;-69
2022/06/20 11:28:13;;;;;;;;;21.75;21.75;;;;;-147.17;100.00;-15917.19;5012588;28;51103;-68
2022/06/20 11:30:51;;;;;;;;;22.00;22.00;;;;;-147.17;100.00;-15917.19;4998707;28;51175;-69
2022/06/20 11:37:04;;;;;;;;;21.75;20.50;;;;;-147.17;100.00;-15917.19;5000685;28;51120;-67
2022/06/20 11:39:48;;;;;;;;;20.00;20.00;;;;;-147.17;100.00;-15917.19;4984674;28;51130;-67
2022/06/20 11:42:51;;;;;;;;;20.50;19.50;;;;;-147.17;100.00;-15917.19;5008338;28;51272;-68
2022/06/20 11:46:00;;;;;;;;;21.00;20.25;;;;;-147.17;100.00;-15917.19;4994139;28;51378;-70